sensor_id;sensor_type;location;lat;lon;timestamp;temperature;humidity
2907;DHT22;1463;51.070;16.998;2023-09-12T00:00:10;22.10;99.90
2907;DHT22;1463;51.070;16.998;2023-09-12T00:02:39;22.10;99.90
2907;DHT22;1463;51.070;16.998;2023-09-12T00:05:10;22.00;99.90
2907;DHT22;1463;51.070;16.998;2023-09-12T00:07:39;22.10;99.90
2907;DHT22;1463;51.070;16.998;2023-09-12T00:10:06;22.10;99.90
2907;DHT22;1463;51.070;16.998;2023-09-12T00:12:33;22.00;99.90
2907;DHT22;1463;51.070;16.998;2023-09-12T00:15:00;22.00;99.90
2907;DHT22;1463;51.070;16.998;2023-09-12T00:17:29;22.00;99.90
2907;DHT22;1463;51.070;16.998;2023-09-12T00:19:56;22.00;99.90
2907;DHT22;1463;51.070;16.998;2023-09-12T00:22:24;22.00;99.90
2907;DHT22;1463;51.070;16.998;2023-09-12T00:24:53;21.90;99.90
2907;DHT22;1463;51.070;16.998;2023-09-12T00:27:20;21.90;99.90
2907;DHT22;1463;51.070;16.998;2023-09-12T00:29:47;21.80;99.90
2907;DHT22;1463;51.070;16.998;2023-09-12T00:32:14;21.80;99.90
2907;DHT22;1463;51.070;16.998;2023-09-12T00:34:40;21.80;99.90
2907;DHT22;1463;51.070;16.998;2023-09-12T00:37:07;21.70;99.90
2907;DHT22;1463;51.070;16.998;2023-09-12T00:39:35;21.70;99.90
2907;DHT22;1463;51.070;16.998;2023-09-12T00:42:02;21.60;99.90
2907;DHT22;1463;51.070;16.998;2023-09-12T00:44:30;21.70;99.90
2907;DHT22;1463;51.070;16.998;2023-09-12T00:46:57;21.70;99.90
2907;DHT22;1463;51.070;16.998;2023-09-12T00:49:25;21.70;99.90
2907;DHT22;1463;51.070;16.998;2023-09-12T00:51:53;21.70;99.90
2907;DHT22;1463;51.070;16.998;2023-09-12T00:54:20;21.60;99.90
2907;DHT22;1463;51.070;16.998;2023-09-12T00:56:49;21.60;99.90
2907;DHT22;1463;51.070;16.998;2023-09-12T00:59:18;21.60;99.90
2907;DHT22;1463;51.070;16.998;2023-09-12T01:01:45;21.60;99.90
2907;DHT22;1463;51.070;16.998;2023-09-12T01:04:12;21.60;99.90
2907;DHT22;1463;51.070;16.998;2023-09-12T01:06:39;21.50;99.90
2907;DHT22;1463;51.070;16.998;2023-09-12T01:09:06;21.50;99.90
2907;DHT22;1463;51.070;16.998;2023-09-12T01:11:33;21.50;99.90
2907;DHT22;1463;51.070;16.998;2023-09-12T01:14:01;21.40;99.90
2907;DHT22;1463;51.070;16.998;2023-09-12T01:16:28;21.40;99.90
2907;DHT22;1463;51.070;16.998;2023-09-12T01:18:55;21.40;99.90
2907;DHT22;1463;51.070;16.998;2023-09-12T01:21:42;21.40;99.90
2907;DHT22;1463;51.070;16.998;2023-09-12T01:27:21;21.40;99.90
2907;DHT22;1463;51.070;16.998;2023-09-12T01:29:53;21.30;99.90
2907;DHT22;1463;51.070;16.998;2023-09-12T01:32:20;21.30;99.90
2907;DHT22;1463;51.070;16.998;2023-09-12T01:34:47;21.30;99.90
2907;DHT22;1463;51.070;16.998;2023-09-12T01:37:14;21.30;99.90
2907;DHT22;1463;51.070;16.998;2023-09-12T01:39:42;21.30;99.90
2907;DHT22;1463;51.070;16.998;2023-09-12T01:42:11;21.30;99.90
2907;DHT22;1463;51.070;16.998;2023-09-12T01:44:45;21.20;99.90
2907;DHT22;1463;51.070;16.998;2023-09-12T01:47:13;21.20;99.90
2907;DHT22;1463;51.070;16.998;2023-09-12T01:49:42;21.20;99.90
2907;DHT22;1463;51.070;16.998;2023-09-12T01:52:14;21.20;99.90
2907;DHT22;1463;51.070;16.998;2023-09-12T01:54:41;21.20;99.90
2907;DHT22;1463;51.070;16.998;2023-09-12T01:57:09;21.20;99.90
2907;DHT22;1463;51.070;16.998;2023-09-12T01:59:36;21.10;99.90
2907;DHT22;1463;51.070;16.998;2023-09-12T02:02:04;21.10;99.90
2907;DHT22;1463;51.070;16.998;2023-09-12T02:04:34;21.10;99.90
2907;DHT22;1463;51.070;16.998;2023-09-12T02:07:00;21.10;99.90
2907;DHT22;1463;51.070;16.998;2023-09-12T02:09:27;21.00;99.90
2907;DHT22;1463;51.070;16.998;2023-09-12T02:11:54;21.00;99.90
2907;DHT22;1463;51.070;16.998;2023-09-12T02:14:21;21.00;99.90
2907;DHT22;1463;51.070;16.998;2023-09-12T02:16:48;20.90;99.90
2907;DHT22;1463;51.070;16.998;2023-09-12T02:19:16;21.00;99.90
2907;DHT22;1463;51.070;16.998;2023-09-12T02:21:42;21.00;99.90
2907;DHT22;1463;51.070;16.998;2023-09-12T02:24:09;21.00;99.90
2907;DHT22;1463;51.070;16.998;2023-09-12T02:26:36;20.90;99.90
2907;DHT22;1463;51.070;16.998;2023-09-12T02:29:03;20.80;99.90
2907;DHT22;1463;51.070;16.998;2023-09-12T02:31:31;20.80;99.90
2907;DHT22;1463;51.070;16.998;2023-09-12T02:33:58;20.80;99.90
2907;DHT22;1463;51.070;16.998;2023-09-12T02:36:26;20.80;99.90
2907;DHT22;1463;51.070;16.998;2023-09-12T02:38:54;20.80;99.90
2907;DHT22;1463;51.070;16.998;2023-09-12T02:41:21;20.70;99.90
2907;DHT22;1463;51.070;16.998;2023-09-12T02:43:48;20.80;99.90
2907;DHT22;1463;51.070;16.998;2023-09-12T02:46:14;20.70;99.90
2907;DHT22;1463;51.070;16.998;2023-09-12T02:48:41;20.70;99.90
2907;DHT22;1463;51.070;16.998;2023-09-12T02:51:08;20.60;99.90
2907;DHT22;1463;51.070;16.998;2023-09-12T02:53:36;20.60;99.90
2907;DHT22;1463;51.070;16.998;2023-09-12T02:56:03;20.60;99.90
2907;DHT22;1463;51.070;16.998;2023-09-12T02:58:30;20.60;99.90
2907;DHT22;1463;51.070;16.998;2023-09-12T03:00:56;20.60;99.90
2907;DHT22;1463;51.070;16.998;2023-09-12T03:03:25;20.60;99.90
2907;DHT22;1463;51.070;16.998;2023-09-12T03:05:57;20.60;99.90
2907;DHT22;1463;51.070;16.998;2023-09-12T03:08:26;20.60;99.90
2907;DHT22;1463;51.070;16.998;2023-09-12T03:10:55;20.50;99.90
2907;DHT22;1463;51.070;16.998;2023-09-12T03:13:24;20.60;99.90
2907;DHT22;1463;51.070;16.998;2023-09-12T03:15:52;20.50;99.90
2907;DHT22;1463;51.070;16.998;2023-09-12T03:18:19;20.60;99.90
2907;DHT22;1463;51.070;16.998;2023-09-12T03:20:46;20.60;99.90
2907;DHT22;1463;51.070;16.998;2023-09-12T03:23:12;20.50;99.90
2907;DHT22;1463;51.070;16.998;2023-09-12T03:25:40;20.50;99.90
2907;DHT22;1463;51.070;16.998;2023-09-12T03:28:08;20.50;99.90
2907;DHT22;1463;51.070;16.998;2023-09-12T03:30:38;20.50;99.90
2907;DHT22;1463;51.070;16.998;2023-09-12T03:33:05;20.50;99.90
2907;DHT22;1463;51.070;16.998;2023-09-12T03:35:33;20.50;99.90
2907;DHT22;1463;51.070;16.998;2023-09-12T03:37:59;20.50;99.90
2907;DHT22;1463;51.070;16.998;2023-09-12T03:40:28;20.50;99.90
2907;DHT22;1463;51.070;16.998;2023-09-12T03:42:55;20.40;99.90
2907;DHT22;1463;51.070;16.998;2023-09-12T03:45:24;20.40;99.90
2907;DHT22;1463;51.070;16.998;2023-09-12T03:47:51;20.30;99.90
2907;DHT22;1463;51.070;16.998;2023-09-12T03:50:18;20.30;99.90
2907;DHT22;1463;51.070;16.998;2023-09-12T03:52:44;20.30;99.90
2907;DHT22;1463;51.070;16.998;2023-09-12T03:55:11;20.30;99.90
2907;DHT22;1463;51.070;16.998;2023-09-12T03:57:38;20.30;99.90
2907;DHT22;1463;51.070;16.998;2023-09-12T04:00:09;20.20;99.90
2907;DHT22;1463;51.070;16.998;2023-09-12T04:02:37;20.20;99.90
2907;DHT22;1463;51.070;16.998;2023-09-12T04:05:04;20.20;99.90
2907;DHT22;1463;51.070;16.998;2023-09-12T04:07:31;20.10;99.90
2907;DHT22;1463;51.070;16.998;2023-09-12T04:09:58;20.10;99.90
2907;DHT22;1463;51.070;16.998;2023-09-12T04:12:25;20.10;99.90
2907;DHT22;1463;51.070;16.998;2023-09-12T04:14:52;20.20;99.90
2907;DHT22;1463;51.070;16.998;2023-09-12T04:17:22;20.20;99.90
2907;DHT22;1463;51.070;16.998;2023-09-12T04:19:50;20.10;99.90
2907;DHT22;1463;51.070;16.998;2023-09-12T04:22:17;20.10;99.90
2907;DHT22;1463;51.070;16.998;2023-09-12T04:24:44;20.10;99.90
2907;DHT22;1463;51.070;16.998;2023-09-12T04:27:10;20.20;99.90
2907;DHT22;1463;51.070;16.998;2023-09-12T04:29:37;20.20;99.90
2907;DHT22;1463;51.070;16.998;2023-09-12T04:32:05;20.10;99.90
2907;DHT22;1463;51.070;16.998;2023-09-12T04:34:32;20.10;99.90
2907;DHT22;1463;51.070;16.998;2023-09-12T04:37:00;20.10;99.90
2907;DHT22;1463;51.070;16.998;2023-09-12T04:39:28;20.10;99.90
2907;DHT22;1463;51.070;16.998;2023-09-12T04:41:55;20.10;99.90
2907;DHT22;1463;51.070;16.998;2023-09-12T04:44:22;20.10;99.90
2907;DHT22;1463;51.070;16.998;2023-09-12T04:46:49;20.10;99.90
2907;DHT22;1463;51.070;16.998;2023-09-12T04:49:15;20.10;99.90
2907;DHT22;1463;51.070;16.998;2023-09-12T04:51:42;20.10;99.90
2907;DHT22;1463;51.070;16.998;2023-09-12T04:54:10;20.10;99.90
2907;DHT22;1463;51.070;16.998;2023-09-12T04:56:37;20.10;99.90
2907;DHT22;1463;51.070;16.998;2023-09-12T04:59:04;20.10;99.90
2907;DHT22;1463;51.070;16.998;2023-09-12T05:01:32;20.10;99.90
2907;DHT22;1463;51.070;16.998;2023-09-12T05:03:59;20.10;99.90
2907;DHT22;1463;51.070;16.998;2023-09-12T05:06:26;20.20;99.90
2907;DHT22;1463;51.070;16.998;2023-09-12T05:08:53;20.20;99.90
2907;DHT22;1463;51.070;16.998;2023-09-12T05:11:22;20.20;99.90
2907;DHT22;1463;51.070;16.998;2023-09-12T05:13:49;20.10;99.90
2907;DHT22;1463;51.070;16.998;2023-09-12T05:16:16;20.10;99.90
2907;DHT22;1463;51.070;16.998;2023-09-12T05:18:43;20.10;99.90
2907;DHT22;1463;51.070;16.998;2023-09-12T05:21:10;20.10;99.90
2907;DHT22;1463;51.070;16.998;2023-09-12T05:23:37;20.10;99.90
2907;DHT22;1463;51.070;16.998;2023-09-12T05:26:03;20.10;99.90
2907;DHT22;1463;51.070;16.998;2023-09-12T05:28:32;20.10;99.90
2907;DHT22;1463;51.070;16.998;2023-09-12T05:30:59;20.20;99.90
2907;DHT22;1463;51.070;16.998;2023-09-12T05:33:25;20.20;99.90
2907;DHT22;1463;51.070;16.998;2023-09-12T05:35:56;20.10;99.90
2907;DHT22;1463;51.070;16.998;2023-09-12T05:38:29;20.20;99.90
2907;DHT22;1463;51.070;16.998;2023-09-12T05:40:56;20.10;99.90
2907;DHT22;1463;51.070;16.998;2023-09-12T05:43:23;20.10;99.90
2907;DHT22;1463;51.070;16.998;2023-09-12T05:45:51;20.20;99.90
2907;DHT22;1463;51.070;16.998;2023-09-12T05:48:18;20.20;99.90
2907;DHT22;1463;51.070;16.998;2023-09-12T05:50:45;20.20;99.90
2907;DHT22;1463;51.070;16.998;2023-09-12T05:53:12;20.30;99.90
2907;DHT22;1463;51.070;16.998;2023-09-12T05:55:38;20.30;99.90
2907;DHT22;1463;51.070;16.998;2023-09-12T05:58:05;20.30;99.90
2907;DHT22;1463;51.070;16.998;2023-09-12T06:00:32;20.30;99.90
2907;DHT22;1463;51.070;16.998;2023-09-12T06:03:00;20.30;99.90
2907;DHT22;1463;51.070;16.998;2023-09-12T06:05:27;20.40;99.90
2907;DHT22;1463;51.070;16.998;2023-09-12T06:07:54;20.40;99.90
2907;DHT22;1463;51.070;16.998;2023-09-12T06:10:21;20.40;99.90
2907;DHT22;1463;51.070;16.998;2023-09-12T06:12:48;20.50;99.90
2907;DHT22;1463;51.070;16.998;2023-09-12T06:15:16;20.50;99.90
2907;DHT22;1463;51.070;16.998;2023-09-12T06:17:42;20.60;99.90
2907;DHT22;1463;51.070;16.998;2023-09-12T06:20:11;20.60;99.90
2907;DHT22;1463;51.070;16.998;2023-09-12T06:22:38;20.70;99.90
2907;DHT22;1463;51.070;16.998;2023-09-12T06:25:06;20.70;99.90
2907;DHT22;1463;51.070;16.998;2023-09-12T06:27:32;20.80;99.90
2907;DHT22;1463;51.070;16.998;2023-09-12T06:29:59;20.70;99.90
2907;DHT22;1463;51.070;16.998;2023-09-12T06:32:26;20.80;99.90
2907;DHT22;1463;51.070;16.998;2023-09-12T06:34:53;20.90;99.90
2907;DHT22;1463;51.070;16.998;2023-09-12T06:37:21;20.90;99.90
2907;DHT22;1463;51.070;16.998;2023-09-12T06:39:49;20.90;99.90
2907;DHT22;1463;51.070;16.998;2023-09-12T06:42:17;21.00;99.90
2907;DHT22;1463;51.070;16.998;2023-09-12T06:44:44;21.00;99.90
2907;DHT22;1463;51.070;16.998;2023-09-12T06:47:11;21.10;99.90
2907;DHT22;1463;51.070;16.998;2023-09-12T06:49:38;21.10;99.90
2907;DHT22;1463;51.070;16.998;2023-09-12T06:52:05;21.20;99.90
2907;DHT22;1463;51.070;16.998;2023-09-12T06:54:35;21.20;99.90
2907;DHT22;1463;51.070;16.998;2023-09-12T06:57:02;21.30;99.90
2907;DHT22;1463;51.070;16.998;2023-09-12T06:59:29;21.30;99.90
2907;DHT22;1463;51.070;16.998;2023-09-12T07:01:59;21.40;99.90
2907;DHT22;1463;51.070;16.998;2023-09-12T07:04:26;21.50;99.90
2907;DHT22;1463;51.070;16.998;2023-09-12T07:06:53;21.60;99.90
2907;DHT22;1463;51.070;16.998;2023-09-12T07:09:20;21.60;99.90
2907;DHT22;1463;51.070;16.998;2023-09-12T07:11:48;21.70;99.90
2907;DHT22;1463;51.070;16.998;2023-09-12T07:14:15;21.80;99.90
2907;DHT22;1463;51.070;16.998;2023-09-12T07:16:42;21.80;99.90
2907;DHT22;1463;51.070;16.998;2023-09-12T07:19:09;21.90;99.90
2907;DHT22;1463;51.070;16.998;2023-09-12T07:21:36;22.00;99.90
2907;DHT22;1463;51.070;16.998;2023-09-12T07:24:06;22.00;99.90
2907;DHT22;1463;51.070;16.998;2023-09-12T07:26:33;22.20;99.90
2907;DHT22;1463;51.070;16.998;2023-09-12T07:29:01;22.30;99.90
2907;DHT22;1463;51.070;16.998;2023-09-12T07:31:30;22.30;99.90
2907;DHT22;1463;51.070;16.998;2023-09-12T07:33:56;22.40;99.90
2907;DHT22;1463;51.070;16.998;2023-09-12T07:36:23;22.50;99.90
2907;DHT22;1463;51.070;16.998;2023-09-12T07:38:50;22.60;99.90
2907;DHT22;1463;51.070;16.998;2023-09-12T07:41:17;22.70;99.90
2907;DHT22;1463;51.070;16.998;2023-09-12T07:43:44;22.90;99.90
2907;DHT22;1463;51.070;16.998;2023-09-12T07:46:12;22.90;99.90
2907;DHT22;1463;51.070;16.998;2023-09-12T07:48:39;23.00;99.90
2907;DHT22;1463;51.070;16.998;2023-09-12T07:51:12;23.10;99.90
2907;DHT22;1463;51.070;16.998;2023-09-12T07:53:41;23.20;99.90
2907;DHT22;1463;51.070;16.998;2023-09-12T07:56:09;23.40;99.90
2907;DHT22;1463;51.070;16.998;2023-09-12T07:58:36;23.50;99.90
2907;DHT22;1463;51.070;16.998;2023-09-12T08:01:06;23.60;99.90
2907;DHT22;1463;51.070;16.998;2023-09-12T08:03:35;23.80;99.90
2907;DHT22;1463;51.070;16.998;2023-09-12T08:06:02;24.20;99.90
2907;DHT22;1463;51.070;16.998;2023-09-12T08:08:30;26.60;99.90
2907;DHT22;1463;51.070;16.998;2023-09-12T08:10:57;29.70;99.90
2907;DHT22;1463;51.070;16.998;2023-09-12T08:13:26;31.40;99.90
2907;DHT22;1463;51.070;16.998;2023-09-12T08:15:53;32.80;99.70
2907;DHT22;1463;51.070;16.998;2023-09-12T08:18:20;34.10;97.00
2907;DHT22;1463;51.070;16.998;2023-09-12T08:20:48;35.00;92.70
2907;DHT22;1463;51.070;16.998;2023-09-12T08:23:15;35.80;90.90
2907;DHT22;1463;51.070;16.998;2023-09-12T08:25:41;36.70;86.20
2907;DHT22;1463;51.070;16.998;2023-09-12T08:28:08;37.30;82.50
2907;DHT22;1463;51.070;16.998;2023-09-12T08:30:35;38.00;77.80
2907;DHT22;1463;51.070;16.998;2023-09-12T08:33:02;38.50;74.70
2907;DHT22;1463;51.070;16.998;2023-09-12T08:35:29;39.00;72.50
2907;DHT22;1463;51.070;16.998;2023-09-12T08:37:57;37.10;71.90
2907;DHT22;1463;51.070;16.998;2023-09-12T08:40:26;33.20;75.70
2907;DHT22;1463;51.070;16.998;2023-09-12T08:42:56;31.20;81.10
2907;DHT22;1463;51.070;16.998;2023-09-12T08:45:26;30.50;85.80
2907;DHT22;1463;51.070;16.998;2023-09-12T08:47:54;32.20;86.20
2907;DHT22;1463;51.070;16.998;2023-09-12T08:50:21;35.90;80.00
2907;DHT22;1463;51.070;16.998;2023-09-12T08:52:50;37.50;74.70
2907;DHT22;1463;51.070;16.998;2023-09-12T08:55:18;38.80;70.90
2907;DHT22;1463;51.070;16.998;2023-09-12T08:57:50;39.40;68.70
2907;DHT22;1463;51.070;16.998;2023-09-12T09:00:17;40.10;66.60
2907;DHT22;1463;51.070;16.998;2023-09-12T09:02:45;41.00;64.30
2907;DHT22;1463;51.070;16.998;2023-09-12T09:05:14;41.40;62.20
2907;DHT22;1463;51.070;16.998;2023-09-12T09:07:42;42.00;61.10
2907;DHT22;1463;51.070;16.998;2023-09-12T09:10:14;41.70;60.00
2907;DHT22;1463;51.070;16.998;2023-09-12T09:12:44;42.20;59.80
2907;DHT22;1463;51.070;16.998;2023-09-12T09:15:22;42.60;58.50
2907;DHT22;1463;51.070;16.998;2023-09-12T09:17:49;42.50;57.70
2907;DHT22;1463;51.070;16.998;2023-09-12T09:20:34;42.60;58.50
2907;DHT22;1463;51.070;16.998;2023-09-12T09:23:03;42.70;57.70
2907;DHT22;1463;51.070;16.998;2023-09-12T09:25:31;42.20;57.30
2907;DHT22;1463;51.070;16.998;2023-09-12T09:28:02;42.30;56.80
2907;DHT22;1463;51.070;16.998;2023-09-12T09:30:40;41.50;57.50
2907;DHT22;1463;51.070;16.998;2023-09-12T09:33:06;40.80;58.20
2907;DHT22;1463;51.070;16.998;2023-09-12T09:35:34;38.40;59.30
2907;DHT22;1463;51.070;16.998;2023-09-12T09:38:01;35.20;63.20
2907;DHT22;1463;51.070;16.998;2023-09-12T09:40:27;33.30;66.60
2907;DHT22;1463;51.070;16.998;2023-09-12T09:42:55;32.20;69.10
2907;DHT22;1463;51.070;16.998;2023-09-12T09:45:24;31.70;70.50
2907;DHT22;1463;51.070;16.998;2023-09-12T09:47:50;31.30;72.00
2907;DHT22;1463;51.070;16.998;2023-09-12T09:50:17;30.90;73.00
2907;DHT22;1463;51.070;16.998;2023-09-12T09:52:44;30.60;76.10
2907;DHT22;1463;51.070;16.998;2023-09-12T09:55:13;30.20;75.50
2907;DHT22;1463;51.070;16.998;2023-09-12T09:57:40;30.10;76.70
2907;DHT22;1463;51.070;16.998;2023-09-12T10:00:08;29.80;78.40
2907;DHT22;1463;51.070;16.998;2023-09-12T10:02:42;29.70;79.00
2907;DHT22;1463;51.070;16.998;2023-09-12T10:05:10;29.60;79.80
2907;DHT22;1463;51.070;16.998;2023-09-12T10:07:38;29.50;81.30
2907;DHT22;1463;51.070;16.998;2023-09-12T10:10:09;29.50;80.40
2907;DHT22;1463;51.070;16.998;2023-09-12T10:12:39;29.40;81.10
2907;DHT22;1463;51.070;16.998;2023-09-12T10:15:10;29.40;81.90
2907;DHT22;1463;51.070;16.998;2023-09-12T10:17:42;29.20;82.00
2907;DHT22;1463;51.070;16.998;2023-09-12T10:20:15;29.20;81.80
2907;DHT22;1463;51.070;16.998;2023-09-12T10:22:50;29.10;81.60
2907;DHT22;1463;51.070;16.998;2023-09-12T10:25:19;29.10;81.50
2907;DHT22;1463;51.070;16.998;2023-09-12T10:27:46;29.00;80.40
2907;DHT22;1463;51.070;16.998;2023-09-12T10:30:17;29.00;81.70
2907;DHT22;1463;51.070;16.998;2023-09-12T10:32:46;29.00;81.20
2907;DHT22;1463;51.070;16.998;2023-09-12T10:35:14;29.00;82.60
2907;DHT22;1463;51.070;16.998;2023-09-12T10:37:41;28.90;75.60
2907;DHT22;1463;51.070;16.998;2023-09-12T10:40:11;28.80;75.60
2907;DHT22;1463;51.070;16.998;2023-09-12T10:42:41;28.70;77.60
2907;DHT22;1463;51.070;16.998;2023-09-12T10:45:09;28.80;75.00
2907;DHT22;1463;51.070;16.998;2023-09-12T10:47:37;28.80;76.20
2907;DHT22;1463;51.070;16.998;2023-09-12T10:50:06;28.70;77.20
2907;DHT22;1463;51.070;16.998;2023-09-12T10:52:33;28.50;75.20
2907;DHT22;1463;51.070;16.998;2023-09-12T10:55:05;28.50;75.70
2907;DHT22;1463;51.070;16.998;2023-09-12T10:57:33;28.50;78.90
2907;DHT22;1463;51.070;16.998;2023-09-12T11:00:21;28.40;75.80
2907;DHT22;1463;51.070;16.998;2023-09-12T11:02:47;28.40;77.90
2907;DHT22;1463;51.070;16.998;2023-09-12T11:05:38;28.40;76.40
2907;DHT22;1463;51.070;16.998;2023-09-12T11:08:17;28.40;76.10
2907;DHT22;1463;51.070;16.998;2023-09-12T11:10:44;28.40;78.00
2907;DHT22;1463;51.070;16.998;2023-09-12T11:13:17;28.40;78.00
2907;DHT22;1463;51.070;16.998;2023-09-12T11:16:12;28.40;79.00
2907;DHT22;1463;51.070;16.998;2023-09-12T11:19:15;28.30;78.00
2907;DHT22;1463;51.070;16.998;2023-09-12T11:21:46;28.30;78.40
2907;DHT22;1463;51.070;16.998;2023-09-12T11:24:13;28.30;78.90
2907;DHT22;1463;51.070;16.998;2023-09-12T11:26:58;28.40;78.90
2907;DHT22;1463;51.070;16.998;2023-09-12T11:29:29;28.70;78.40
2907;DHT22;1463;51.070;16.998;2023-09-12T11:31:58;29.20;75.50
2907;DHT22;1463;51.070;16.998;2023-09-12T11:34:26;30.50;76.60
2907;DHT22;1463;51.070;16.998;2023-09-12T11:36:56;31.30;74.50
2907;DHT22;1463;51.070;16.998;2023-09-12T11:39:26;29.80;74.50
2907;DHT22;1463;51.070;16.998;2023-09-12T11:41:57;29.30;75.20
2907;DHT22;1463;51.070;16.998;2023-09-12T11:44:24;29.20;73.10
2907;DHT22;1463;51.070;16.998;2023-09-12T11:46:52;29.10;75.70
2907;DHT22;1463;51.070;16.998;2023-09-12T11:49:19;28.80;77.10
2907;DHT22;1463;51.070;16.998;2023-09-12T11:51:50;28.80;78.00
2907;DHT22;1463;51.070;16.998;2023-09-12T11:54:20;28.80;78.50
2907;DHT22;1463;51.070;16.998;2023-09-12T11:56:47;28.80;78.50
2907;DHT22;1463;51.070;16.998;2023-09-12T11:59:15;28.70;79.20
2907;DHT22;1463;51.070;16.998;2023-09-12T12:01:44;28.70;78.60
2907;DHT22;1463;51.070;16.998;2023-09-12T12:04:12;28.80;76.80
2907;DHT22;1463;51.070;16.998;2023-09-12T12:06:39;28.80;77.60
2907;DHT22;1463;51.070;16.998;2023-09-12T12:09:06;28.80;77.50
2907;DHT22;1463;51.070;16.998;2023-09-12T12:11:35;28.70;78.20
2907;DHT22;1463;51.070;16.998;2023-09-12T12:14:10;28.70;77.00
2907;DHT22;1463;51.070;16.998;2023-09-12T12:16:40;28.70;77.50
2907;DHT22;1463;51.070;16.998;2023-09-12T12:19:07;28.70;77.80
2907;DHT22;1463;51.070;16.998;2023-09-12T12:21:34;28.80;75.30
2907;DHT22;1463;51.070;16.998;2023-09-12T12:24:02;28.70;78.50
2907;DHT22;1463;51.070;16.998;2023-09-12T12:26:30;28.80;76.00
2907;DHT22;1463;51.070;16.998;2023-09-12T12:29:00;28.90;74.30
2907;DHT22;1463;51.070;16.998;2023-09-12T12:31:28;29.00;73.60
2907;DHT22;1463;51.070;16.998;2023-09-12T12:33:55;28.90;73.80
2907;DHT22;1463;51.070;16.998;2023-09-12T12:36:23;29.00;75.10
2907;DHT22;1463;51.070;16.998;2023-09-12T12:38:53;28.90;74.50
2907;DHT22;1463;51.070;16.998;2023-09-12T12:41:23;28.90;75.30
2907;DHT22;1463;51.070;16.998;2023-09-12T12:43:51;29.00;76.30
2907;DHT22;1463;51.070;16.998;2023-09-12T12:46:20;29.00;76.30
2907;DHT22;1463;51.070;16.998;2023-09-12T12:48:48;29.00;76.60
2907;DHT22;1463;51.070;16.998;2023-09-12T12:51:16;29.00;74.60
2907;DHT22;1463;51.070;16.998;2023-09-12T12:53:45;29.00;74.20
2907;DHT22;1463;51.070;16.998;2023-09-12T12:56:14;28.90;76.00
2907;DHT22;1463;51.070;16.998;2023-09-12T12:58:46;28.90;74.60
2907;DHT22;1463;51.070;16.998;2023-09-12T13:01:14;28.90;73.60
2907;DHT22;1463;51.070;16.998;2023-09-12T13:03:42;28.90;73.80
2907;DHT22;1463;51.070;16.998;2023-09-12T13:06:10;29.00;73.60
2907;DHT22;1463;51.070;16.998;2023-09-12T13:08:42;28.90;74.40
2907;DHT22;1463;51.070;16.998;2023-09-12T13:11:10;28.90;74.10
2907;DHT22;1463;51.070;16.998;2023-09-12T13:13:37;28.90;72.80
2907;DHT22;1463;51.070;16.998;2023-09-12T13:16:04;28.80;73.00
2907;DHT22;1463;51.070;16.998;2023-09-12T13:18:31;28.80;74.80
2907;DHT22;1463;51.070;16.998;2023-09-12T13:21:00;28.80;75.60
2907;DHT22;1463;51.070;16.998;2023-09-12T13:23:27;28.80;75.50
2907;DHT22;1463;51.070;16.998;2023-09-12T13:25:56;28.80;75.30
2907;DHT22;1463;51.070;16.998;2023-09-12T13:28:23;28.80;75.00
2907;DHT22;1463;51.070;16.998;2023-09-12T13:30:51;28.80;74.50
2907;DHT22;1463;51.070;16.998;2023-09-12T13:33:18;28.70;75.60
2907;DHT22;1463;51.070;16.998;2023-09-12T13:35:45;28.70;75.30
2907;DHT22;1463;51.070;16.998;2023-09-12T13:38:13;28.70;74.90
2907;DHT22;1463;51.070;16.998;2023-09-12T13:40:43;28.70;75.40
2907;DHT22;1463;51.070;16.998;2023-09-12T13:43:10;28.70;75.00
2907;DHT22;1463;51.070;16.998;2023-09-12T13:45:38;28.70;75.10
2907;DHT22;1463;51.070;16.998;2023-09-12T13:48:05;28.80;74.00
2907;DHT22;1463;51.070;16.998;2023-09-12T13:50:33;28.80;74.80
2907;DHT22;1463;51.070;16.998;2023-09-12T13:53:01;28.70;75.00
2907;DHT22;1463;51.070;16.998;2023-09-12T13:55:30;28.70;75.00
2907;DHT22;1463;51.070;16.998;2023-09-12T13:57:57;28.70;75.40
2907;DHT22;1463;51.070;16.998;2023-09-12T14:00:24;28.70;75.50
2907;DHT22;1463;51.070;16.998;2023-09-12T14:02:54;28.80;74.50
2907;DHT22;1463;51.070;16.998;2023-09-12T14:05:21;28.70;75.30
2907;DHT22;1463;51.070;16.998;2023-09-12T14:07:48;28.70;75.90
2907;DHT22;1463;51.070;16.998;2023-09-12T14:10:15;28.60;75.80
2907;DHT22;1463;51.070;16.998;2023-09-12T14:12:43;28.50;76.00
2907;DHT22;1463;51.070;16.998;2023-09-12T14:15:13;28.50;76.10
2907;DHT22;1463;51.070;16.998;2023-09-12T14:17:43;28.50;75.70
2907;DHT22;1463;51.070;16.998;2023-09-12T14:20:10;28.50;75.50
2907;DHT22;1463;51.070;16.998;2023-09-12T14:22:41;28.40;75.40
2907;DHT22;1463;51.070;16.998;2023-09-12T14:25:08;28.50;76.00
2907;DHT22;1463;51.070;16.998;2023-09-12T14:27:40;28.50;75.60
2907;DHT22;1463;51.070;16.998;2023-09-12T14:30:10;28.60;76.20
2907;DHT22;1463;51.070;16.998;2023-09-12T14:32:38;28.50;76.00
2907;DHT22;1463;51.070;16.998;2023-09-12T14:35:05;28.50;75.80
2907;DHT22;1463;51.070;16.998;2023-09-12T14:37:32;28.40;75.80
2907;DHT22;1463;51.070;16.998;2023-09-12T14:40:02;28.40;76.50
2907;DHT22;1463;51.070;16.998;2023-09-12T14:42:30;28.40;76.10
2907;DHT22;1463;51.070;16.998;2023-09-12T14:44:57;28.40;75.80
2907;DHT22;1463;51.070;16.998;2023-09-12T14:47:25;28.40;76.20
2907;DHT22;1463;51.070;16.998;2023-09-12T14:49:56;28.40;75.90
2907;DHT22;1463;51.070;16.998;2023-09-12T14:52:23;28.40;75.60
2907;DHT22;1463;51.070;16.998;2023-09-12T14:54:51;28.50;76.10
2907;DHT22;1463;51.070;16.998;2023-09-12T14:57:18;28.40;76.90
2907;DHT22;1463;51.070;16.998;2023-09-12T14:59:45;28.40;77.30
2907;DHT22;1463;51.070;16.998;2023-09-12T15:02:12;28.30;76.70
2907;DHT22;1463;51.070;16.998;2023-09-12T15:04:40;28.30;78.00
2907;DHT22;1463;51.070;16.998;2023-09-12T15:07:07;28.30;78.10
2907;DHT22;1463;51.070;16.998;2023-09-12T15:09:36;28.30;77.90
2907;DHT22;1463;51.070;16.998;2023-09-12T15:12:04;28.30;77.20
2907;DHT22;1463;51.070;16.998;2023-09-12T15:14:31;28.30;77.20
2907;DHT22;1463;51.070;16.998;2023-09-12T15:16:57;28.30;76.80
2907;DHT22;1463;51.070;16.998;2023-09-12T15:19:25;28.30;76.90
2907;DHT22;1463;51.070;16.998;2023-09-12T15:21:56;28.30;77.10
2907;DHT22;1463;51.070;16.998;2023-09-12T15:24:23;28.20;77.80
2907;DHT22;1463;51.070;16.998;2023-09-12T15:26:52;28.20;77.50
2907;DHT22;1463;51.070;16.998;2023-09-12T15:29:18;28.20;78.00
2907;DHT22;1463;51.070;16.998;2023-09-12T15:31:45;28.20;78.20
2907;DHT22;1463;51.070;16.998;2023-09-12T15:34:12;28.10;78.30
2907;DHT22;1463;51.070;16.998;2023-09-12T15:36:44;28.10;77.60
2907;DHT22;1463;51.070;16.998;2023-09-12T15:39:13;28.20;77.30
2907;DHT22;1463;51.070;16.998;2023-09-12T15:41:40;28.10;77.80
2907;DHT22;1463;51.070;16.998;2023-09-12T15:44:07;28.10;77.40
2907;DHT22;1463;51.070;16.998;2023-09-12T15:46:37;28.10;77.60
2907;DHT22;1463;51.070;16.998;2023-09-12T15:49:04;28.00;78.00
2907;DHT22;1463;51.070;16.998;2023-09-12T15:51:33;28.00;78.10
2907;DHT22;1463;51.070;16.998;2023-09-12T15:54:00;28.00;78.50